sensor_id;sensor_type;location;lat;lon;timestamp;pressure;altitude;pressure_sealevel;temperature;humidity
36260;BME280;22296;50.824;5.644;2023-05-21T00:01:03;100842.41;;;19.64;57.63
36260;BME280;22296;50.824;5.644;2023-05-21T00:03:33;100843.25;;;19.65;57.68
36260;BME280;22296;50.824;5.644;2023-05-21T00:06:02;100836.81;;;19.64;57.50
36260;BME280;22296;50.824;5.644;2023-05-21T00:08:29;100836.81;;;19.64;57.88
36260;BME280;22296;50.824;5.644;2023-05-21T00:10:56;100835.19;;;19.63;57.88
36260;BME280;22296;50.824;5.644;2023-05-21T00:13:23;100841.16;;;19.62;57.68
36260;BME280;22296;50.824;5.644;2023-05-21T00:15:50;100840.00;;;19.63;57.83
36260;BME280;22296;50.824;5.644;2023-05-21T00:18:17;100836.38;;;19.62;57.61
36260;BME280;22296;50.824;5.644;2023-05-21T00:20:44;100832.38;;;19.63;57.75
36260;BME280;22296;50.824;5.644;2023-05-21T00:23:11;100829.97;;;19.62;57.75
36260;BME280;22296;50.824;5.644;2023-05-21T00:25:38;100820.75;;;19.61;57.79
36260;BME280;22296;50.824;5.644;2023-05-21T00:28:05;100833.09;;;19.60;58.07
36260;BME280;22296;50.824;5.644;2023-05-21T00:30:32;100825.53;;;19.61;57.75
36260;BME280;22296;50.824;5.644;2023-05-21T00:32:59;100830.28;;;19.60;57.92
36260;BME280;22296;50.824;5.644;2023-05-21T00:35:28;100823.09;;;19.59;57.90
36260;BME280;22296;50.824;5.644;2023-05-21T00:37:55;100821.44;;;19.58;57.72
36260;BME280;22296;50.824;5.644;2023-05-21T00:40:22;100819.47;;;19.59;57.98
36260;BME280;22296;50.824;5.644;2023-05-21T00:42:48;100823.09;;;19.59;58.00
36260;BME280;22296;50.824;5.644;2023-05-21T00:45:15;100816.66;;;19.59;57.93
36260;BME280;22296;50.824;5.644;2023-05-21T00:47:43;100821.44;;;19.58;57.59
36260;BME280;22296;50.824;5.644;2023-05-21T00:50:11;100819.81;;;19.57;58.01
36260;BME280;22296;50.824;5.644;2023-05-21T00:52:42;100821.81;;;19.57;57.73
36260;BME280;22296;50.824;5.644;2023-05-21T00:55:11;100812.59;;;19.56;57.65
36260;BME280;22296;50.824;5.644;2023-05-21T00:57:38;100817.75;;;19.54;57.77
36260;BME280;22296;50.824;5.644;2023-05-21T01:00:06;100818.91;;;19.53;57.79
36260;BME280;22296;50.824;5.644;2023-05-21T01:02:35;100820.53;;;19.54;58.09
36260;BME280;22296;50.824;5.644;2023-05-21T01:05:04;100826.13;;;19.54;57.88
36260;BME280;22296;50.824;5.644;2023-05-21T01:07:33;100818.44;;;19.51;57.90
36260;BME280;22296;50.824;5.644;2023-05-21T01:10:02;100815.63;;;19.51;58.03
36260;BME280;22296;50.824;5.644;2023-05-21T01:12:31;100821.25;;;19.51;58.25
36260;BME280;22296;50.824;5.644;2023-05-21T01:15:02;100810.06;;;19.51;58.27
36260;BME280;22296;50.824;5.644;2023-05-21T01:17:30;100814.00;;;19.50;57.98
36260;BME280;22296;50.824;5.644;2023-05-21T01:19:57;100826.00;;;19.51;58.24
36260;BME280;22296;50.824;5.644;2023-05-21T01:22:27;100817.97;;;19.49;58.28
36260;BME280;22296;50.824;5.644;2023-05-21T01:24:54;100807.59;;;19.50;58.42
36260;BME280;22296;50.824;5.644;2023-05-21T01:27:21;100805.16;;;19.48;58.12
36260;BME280;22296;50.824;5.644;2023-05-21T01:29:48;100796.75;;;19.48;58.12
36260;BME280;22296;50.824;5.644;2023-05-21T01:32:36;100806.31;;;19.47;57.97
36260;BME280;22296;50.824;5.644;2023-05-21T01:35:11;100805.16;;;19.48;58.25
36260;BME280;22296;50.824;5.644;2023-05-21T01:37:50;100801.88;;;19.46;58.38
36260;BME280;22296;50.824;5.644;2023-05-21T01:40:35;100801.09;;;19.46;58.18
36260;BME280;22296;50.824;5.644;2023-05-21T01:43:05;100804.66;;;19.46;58.45
36260;BME280;22296;50.824;5.644;2023-05-21T01:45:35;100799.44;;;19.45;58.21
36260;BME280;22296;50.824;5.644;2023-05-21T01:48:05;100799.06;;;19.46;58.26
36260;BME280;22296;50.824;5.644;2023-05-21T01:50:34;100798.63;;;19.44;58.44
36260;BME280;22296;50.824;5.644;2023-05-21T01:53:02;100805.03;;;19.45;58.46
36260;BME280;22296;50.824;5.644;2023-05-21T01:55:31;100794.19;;;19.43;58.39
36260;BME280;22296;50.824;5.644;2023-05-21T01:57:59;100796.97;;;19.43;58.30
36260;BME280;22296;50.824;5.644;2023-05-21T02:00:28;100792.56;;;19.42;58.49
36260;BME280;22296;50.824;5.644;2023-05-21T02:02:55;100782.53;;;19.41;58.30
36260;BME280;22296;50.824;5.644;2023-05-21T02:05:22;100785.34;;;19.41;58.46
36260;BME280;22296;50.824;5.644;2023-05-21T02:07:49;100779.75;;;19.41;58.27
36260;BME280;22296;50.824;5.644;2023-05-21T02:10:17;100775.31;;;19.40;58.53
36260;BME280;22296;50.824;5.644;2023-05-21T02:12:45;100780.91;;;19.40;58.25
36260;BME280;22296;50.824;5.644;2023-05-21T02:15:12;100781.03;;;19.44;58.22
36260;BME280;22296;50.824;5.644;2023-05-21T02:17:40;100783.00;;;19.43;58.28
36260;BME280;22296;50.824;5.644;2023-05-21T02:20:10;100776.13;;;19.41;58.69
36260;BME280;22296;50.824;5.644;2023-05-21T02:22:41;100778.59;;;19.42;58.45
36260;BME280;22296;50.824;5.644;2023-05-21T02:25:09;100776.50;;;19.39;58.56
36260;BME280;22296;50.824;5.644;2023-05-21T02:27:37;100772.03;;;19.38;58.84
36260;BME280;22296;50.824;5.644;2023-05-21T02:30:06;100774.38;;;19.36;58.66
36260;BME280;22296;50.824;5.644;2023-05-21T02:32:34;100772.72;;;19.35;58.55
36260;BME280;22296;50.824;5.644;2023-05-21T02:35:02;100762.72;;;19.34;58.99
36260;BME280;22296;50.824;5.644;2023-05-21T02:37:30;100763.44;;;19.31;58.92
36260;BME280;22296;50.824;5.644;2023-05-21T02:40:02;100762.25;;;19.32;58.51
36260;BME280;22296;50.824;5.644;2023-05-21T02:42:30;100769.47;;;19.33;58.68
36260;BME280;22296;50.824;5.644;2023-05-21T02:44:57;100773.78;;;19.30;58.98
36260;BME280;22296;50.824;5.644;2023-05-21T02:47:23;100761.78;;;19.30;58.78
36260;BME280;22296;50.824;5.644;2023-05-21T02:49:52;100768.53;;;19.29;58.98
36260;BME280;22296;50.824;5.644;2023-05-21T02:52:19;100773.31;;;19.28;58.79
36260;BME280;22296;50.824;5.644;2023-05-21T02:54:50;100773.31;;;19.28;58.71
36260;BME280;22296;50.824;5.644;2023-05-21T02:57:18;100771.31;;;19.29;58.45
36260;BME280;22296;50.824;5.644;2023-05-21T02:59:44;100760.84;;;19.26;58.85
36260;BME280;22296;50.824;5.644;2023-05-21T03:02:11;100765.28;;;19.27;59.00
36260;BME280;22296;50.824;5.644;2023-05-21T03:04:38;100763.63;;;19.26;58.77
36260;BME280;22296;50.824;5.644;2023-05-21T03:07:12;100767.63;;;19.25;58.73
36260;BME280;22296;50.824;5.644;2023-05-21T03:09:40;100760.38;;;19.24;58.45
36260;BME280;22296;50.824;5.644;2023-05-21T03:12:08;100756.44;;;19.25;58.71
36260;BME280;22296;50.824;5.644;2023-05-21T03:14:38;100757.59;;;19.24;58.40
36260;BME280;22296;50.824;5.644;2023-05-21T03:17:05;100760.38;;;19.24;58.78
36260;BME280;22296;50.824;5.644;2023-05-21T03:19:33;100753.16;;;19.23;58.93
36260;BME280;22296;50.824;5.644;2023-05-21T03:22:03;100747.94;;;19.21;58.82
36260;BME280;22296;50.824;5.644;2023-05-21T03:24:33;100749.56;;;19.22;58.91
36260;BME280;22296;50.824;5.644;2023-05-21T03:27:01;100754.34;;;19.22;58.45
36260;BME280;22296;50.824;5.644;2023-05-21T03:29:29;100756.31;;;19.21;58.61
36260;BME280;22296;50.824;5.644;2023-05-21T03:31:56;100751.53;;;19.22;58.56
36260;BME280;22296;50.824;5.644;2023-05-21T03:34:23;100750.28;;;19.19;58.67
36260;BME280;22296;50.824;5.644;2023-05-21T03:36:50;100747.47;;;19.19;58.56
36260;BME280;22296;50.824;5.644;2023-05-21T03:39:18;100746.66;;;19.19;58.75
36260;BME280;22296;50.824;5.644;2023-05-21T03:41:45;100753.84;;;19.20;58.40
36260;BME280;22296;50.824;5.644;2023-05-21T03:44:20;100763.44;;;19.19;58.83
36260;BME280;22296;50.824;5.644;2023-05-21T03:46:52;100763.44;;;19.19;59.05
36260;BME280;22296;50.824;5.644;2023-05-21T03:49:23;100761.78;;;19.18;58.63
36260;BME280;22296;50.824;5.644;2023-05-21T03:51:52;100760.19;;;19.17;58.75
36260;BME280;22296;50.824;5.644;2023-05-21T03:54:20;100758.53;;;19.16;58.53
36260;BME280;22296;50.824;5.644;2023-05-21T03:56:49;100765.78;;;19.17;58.84
36260;BME280;22296;50.824;5.644;2023-05-21T03:59:17;100764.13;;;19.16;58.41
36260;BME280;22296;50.824;5.644;2023-05-21T04:01:46;100762.50;;;19.15;58.94
36260;BME280;22296;50.824;5.644;2023-05-21T04:04:15;100756.91;;;19.15;58.87
36260;BME280;22296;50.824;5.644;2023-05-21T04:06:42;100765.28;;;19.15;58.38
36260;BME280;22296;50.824;5.644;2023-05-21T04:09:10;100760.88;;;19.14;58.85
36260;BME280;22296;50.824;5.644;2023-05-21T04:11:37;100763.69;;;19.14;58.64
36260;BME280;22296;50.824;5.644;2023-05-21T04:14:04;100762.03;;;19.13;58.60
36260;BME280;22296;50.824;5.644;2023-05-21T04:16:31;100762.84;;;19.13;58.83
36260;BME280;22296;50.824;5.644;2023-05-21T04:19:00;100758.78;;;19.11;58.38
36260;BME280;22296;50.824;5.644;2023-05-21T04:21:28;100760.38;;;19.12;58.76
36260;BME280;22296;50.824;5.644;2023-05-21T04:23:57;100761.22;;;19.12;58.72
36260;BME280;22296;50.824;5.644;2023-05-21T04:26:45;100760.38;;;19.12;58.88
36260;BME280;22296;50.824;5.644;2023-05-21T04:29:15;100758.78;;;19.11;58.55
36260;BME280;22296;50.824;5.644;2023-05-21T04:31:48;100759.94;;;19.10;58.66
36260;BME280;22296;50.824;5.644;2023-05-21T04:34:15;100762.72;;;19.10;58.64
36260;BME280;22296;50.824;5.644;2023-05-21T04:36:44;100765.53;;;19.10;58.71
36260;BME280;22296;50.824;5.644;2023-05-21T04:39:12;100763.09;;;19.08;58.54
36260;BME280;22296;50.824;5.644;2023-05-21T04:41:39;100769.47;;;19.09;58.60
36260;BME280;22296;50.824;5.644;2023-05-21T04:44:07;100776.25;;;19.08;58.85
36260;BME280;22296;50.824;5.644;2023-05-21T04:46:34;100773.47;;;19.08;58.71
36260;BME280;22296;50.824;5.644;2023-05-21T04:49:01;100774.59;;;19.07;58.38
36260;BME280;22296;50.824;5.644;2023-05-21T04:51:29;100777.41;;;19.07;58.84
36260;BME280;22296;50.824;5.644;2023-05-21T04:53:56;100774.59;;;19.07;58.39
36260;BME280;22296;50.824;5.644;2023-05-21T04:56:24;100780.56;;;19.05;58.30
36260;BME280;22296;50.824;5.644;2023-05-21T04:58:52;100774.59;;;19.07;58.58
36260;BME280;22296;50.824;5.644;2023-05-21T05:01:20;100771.81;;;19.07;58.45
36260;BME280;22296;50.824;5.644;2023-05-21T05:03:55;100779.38;;;19.06;58.63
36260;BME280;22296;50.824;5.644;2023-05-21T05:06:22;100782.53;;;19.05;58.44
36260;BME280;22296;50.824;5.644;2023-05-21T05:08:51;100775.75;;;19.06;58.73
36260;BME280;22296;50.824;5.644;2023-05-21T05:11:19;100780.19;;;19.07;58.43
36260;BME280;22296;50.824;5.644;2023-05-21T05:13:46;100774.97;;;19.05;58.48
36260;BME280;22296;50.824;5.644;2023-05-21T05:16:13;100768.56;;;19.05;58.61
36260;BME280;22296;50.824;5.644;2023-05-21T05:18:42;100779.75;;;19.05;58.34
36260;BME280;22296;50.824;5.644;2023-05-21T05:21:10;100768.56;;;19.05;58.57
36260;BME280;22296;50.824;5.644;2023-05-21T05:23:37;100779.75;;;19.05;58.50
36260;BME280;22296;50.824;5.644;2023-05-21T05:26:06;100773.34;;;19.04;58.77
36260;BME280;22296;50.824;5.644;2023-05-21T05:28:33;100780.56;;;19.05;58.75
36260;BME280;22296;50.824;5.644;2023-05-21T05:31:00;100778.94;;;19.04;58.65
36260;BME280;22296;50.824;5.644;2023-05-21T05:33:27;100778.09;;;19.04;58.56
36260;BME280;22296;50.824;5.644;2023-05-21T05:35:54;100782.53;;;19.05;58.95
36260;BME280;22296;50.824;5.644;2023-05-21T05:38:21;100774.16;;;19.05;58.55
36260;BME280;22296;50.824;5.644;2023-05-21T05:40:48;100769.72;;;19.04;58.61
36260;BME280;22296;50.824;5.644;2023-05-21T05:43:15;100774.16;;;19.05;58.45
36260;BME280;22296;50.824;5.644;2023-05-21T05:45:42;100768.56;;;19.05;58.22
36260;BME280;22296;50.824;5.644;2023-05-21T05:48:12;100771.81;;;19.07;58.43
36260;BME280;22296;50.824;5.644;2023-05-21T05:50:40;100774.16;;;19.05;58.11
36260;BME280;22296;50.824;5.644;2023-05-21T05:53:07;100774.97;;;19.05;58.12
36260;BME280;22296;50.824;5.644;2023-05-21T05:55:34;100773.47;;;19.08;58.17
36260;BME280;22296;50.824;5.644;2023-05-21T05:58:01;100771.13;;;19.10;58.05
36260;BME280;22296;50.824;5.644;2023-05-21T06:00:28;100771.94;;;19.10;58.23
36260;BME280;22296;50.824;5.644;2023-05-21T06:02:58;100767.97;;;19.11;58.26
36260;BME280;22296;50.824;5.644;2023-05-21T06:05:25;100763.19;;;19.12;57.78
36260;BME280;22296;50.824;5.644;2023-05-21T06:07:52;100771.56;;;19.12;57.93
36260;BME280;22296;50.824;5.644;2023-05-21T06:10:19;100765.97;;;19.12;58.21
36260;BME280;22296;50.824;5.644;2023-05-21T06:12:46;100760.06;;;19.13;57.87
36260;BME280;22296;50.824;5.644;2023-05-21T06:15:13;100763.19;;;19.12;58.14
36260;BME280;22296;50.824;5.644;2023-05-21T06:17:42;100764.81;;;19.13;57.88
36260;BME280;22296;50.824;5.644;2023-05-21T06:20:11;100760.88;;;19.14;58.16
36260;BME280;22296;50.824;5.644;2023-05-21T06:22:38;100760.88;;;19.14;58.05
36260;BME280;22296;50.824;5.644;2023-05-21T06:25:07;100760.88;;;19.14;57.76
36260;BME280;22296;50.824;5.644;2023-05-21T06:27:34;100754.09;;;19.15;58.10
36260;BME280;22296;50.824;5.644;2023-05-21T06:30:03;100761.66;;;19.14;57.82
36260;BME280;22296;50.824;5.644;2023-05-21T06:32:30;100762.50;;;19.15;58.05
36260;BME280;22296;50.824;5.644;2023-05-21T06:34:57;100768.91;;;19.15;57.94
36260;BME280;22296;50.824;5.644;2023-05-21T06:37:24;100765.78;;;19.17;57.64
36260;BME280;22296;50.824;5.644;2023-05-21T06:39:52;100765.78;;;19.17;58.01
36260;BME280;22296;50.824;5.644;2023-05-21T06:42:19;100774.16;;;19.17;57.63
36260;BME280;22296;50.824;5.644;2023-05-21T06:45:12;100778.56;;;19.18;57.75
36260;BME280;22296;50.824;5.644;2023-05-21T06:47:42;100772.16;;;19.17;57.90
36260;BME280;22296;50.824;5.644;2023-05-21T06:50:09;100776.59;;;19.18;57.76
36260;BME280;22296;50.824;5.644;2023-05-21T06:52:36;100767.38;;;19.18;57.84
36260;BME280;22296;50.824;5.644;2023-05-21T06:55:03;100776.97;;;19.17;57.72
36260;BME280;22296;50.824;5.644;2023-05-21T06:57:48;100776.97;;;19.17;57.89
36260;BME280;22296;50.824;5.644;2023-05-21T07:00:15;100778.56;;;19.18;57.60
36260;BME280;22296;50.824;5.644;2023-05-21T07:02:41;100784.16;;;19.18;57.49
36260;BME280;22296;50.824;5.644;2023-05-21T07:05:08;100775.31;;;19.16;57.59
36260;BME280;22296;50.824;5.644;2023-05-21T07:07:35;100769.72;;;19.16;57.50
36260;BME280;22296;50.824;5.644;2023-05-21T07:10:02;100767.25;;;19.14;57.60
36260;BME280;22296;50.824;5.644;2023-05-21T07:12:29;100774.50;;;19.15;57.91
36260;BME280;22296;50.824;5.644;2023-05-21T07:14:56;100775.31;;;19.16;57.78
36260;BME280;22296;50.824;5.644;2023-05-21T07:17:25;100783.34;;;19.17;57.82
36260;BME280;22296;50.824;5.644;2023-05-21T07:19:52;100776.97;;;19.17;57.54
36260;BME280;22296;50.824;5.644;2023-05-21T07:22:19;100778.09;;;19.16;57.90
36260;BME280;22296;50.824;5.644;2023-05-21T07:24:46;100780.91;;;19.16;57.83
36260;BME280;22296;50.824;5.644;2023-05-21T07:27:13;100781.72;;;19.16;57.43
36260;BME280;22296;50.824;5.644;2023-05-21T07:29:53;100779.25;;;19.15;57.83
36260;BME280;22296;50.824;5.644;2023-05-21T07:32:20;100775.31;;;19.16;57.62
36260;BME280;22296;50.824;5.644;2023-05-21T07:34:47;100775.78;;;19.18;57.41
36260;BME280;22296;50.824;5.644;2023-05-21T07:37:14;100768.19;;;19.18;57.68
36260;BME280;22296;50.824;5.644;2023-05-21T07:39:41;100766.22;;;19.19;57.63
36260;BME280;22296;50.824;5.644;2023-05-21T07:42:10;100771.44;;;19.20;57.92
36260;BME280;22296;50.824;5.644;2023-05-21T07:44:37;100767.13;;;19.23;57.74
36260;BME280;22296;50.824;5.644;2023-05-21T07:47:05;100757.13;;;19.22;57.56
36260;BME280;22296;50.824;5.644;2023-05-21T07:49:33;100751.53;;;19.22;57.53
36260;BME280;22296;50.824;5.644;2023-05-21T07:52:00;100750.72;;;19.21;57.63
36260;BME280;22296;50.824;5.644;2023-05-21T07:54:28;100754.34;;;19.22;57.67
36260;BME280;22296;50.824;5.644;2023-05-21T07:56:56;100756.44;;;19.25;57.57
36260;BME280;22296;50.824;5.644;2023-05-21T07:59:41;100760.38;;;19.24;57.79
36260;BME280;22296;50.824;5.644;2023-05-21T08:02:09;100753.97;;;19.23;57.72
36260;BME280;22296;50.824;5.644;2023-05-21T08:04:36;100760.75;;;19.22;57.67
36260;BME280;22296;50.824;5.644;2023-05-21T08:07:08;100750.84;;;19.25;57.42
36260;BME280;22296;50.824;5.644;2023-05-21T08:09:36;100750.84;;;19.25;57.50
36260;BME280;22296;50.824;5.644;2023-05-21T08:12:03;100755.25;;;19.26;57.56
36260;BME280;22296;50.824;5.644;2023-05-21T08:14:30;100758.06;;;19.26;57.64
36260;BME280;22296;50.824;5.644;2023-05-21T08:16:58;100750.47;;;19.26;57.48
36260;BME280;22296;50.824;5.644;2023-05-21T08:19:25;100748.50;;;19.27;57.61
36260;BME280;22296;50.824;5.644;2023-05-21T08:21:52;100762.13;;;19.28;57.32
36260;BME280;22296;50.824;5.644;2023-05-21T08:24:20;100758.16;;;19.29;57.56
36260;BME280;22296;50.824;5.644;2023-05-21T08:26:47;100757.34;;;19.29;57.50
36260;BME280;22296;50.824;5.644;2023-05-21T08:29:17;100750.16;;;19.28;57.42
36260;BME280;22296;50.824;5.644;2023-05-21T08:31:44;100754.22;;;19.30;57.30
36260;BME280;22296;50.824;5.644;2023-05-21T08:34:11;100755.03;;;19.31;57.42
36260;BME280;22296;50.824;5.644;2023-05-21T08:36:45;100755.03;;;19.31;57.39
36260;BME280;22296;50.824;5.644;2023-05-21T08:39:33;100755.03;;;19.31;57.29
36260;BME280;22296;50.824;5.644;2023-05-21T08:42:08;100756.66;;;19.32;57.16
36260;BME280;22296;50.824;5.644;2023-05-21T08:44:42;100757.84;;;19.31;57.17
36260;BME280;22296;50.824;5.644;2023-05-21T08:47:13;100763.88;;;19.33;57.29
36260;BME280;22296;50.824;5.644;2023-05-21T08:49:42;100757.91;;;19.34;57.22
36260;BME280;22296;50.824;5.644;2023-05-21T08:52:11;100764.69;;;19.33;57.22
36260;BME280;22296;50.824;5.644;2023-05-21T08:54:38;100765.53;;;19.34;57.40
36260;BME280;22296;50.824;5.644;2023-05-21T08:57:05;100761.09;;;19.33;57.19
36260;BME280;22296;50.824;5.644;2023-05-21T08:59:33;100755.59;;;19.37;57.32
36260;BME280;22296;50.824;5.644;2023-05-21T09:02:05;100758.41;;;19.37;57.14
36260;BME280;22296;50.824;5.644;2023-05-21T09:04:36;100752.81;;;19.37;57.03
36260;BME280;22296;50.824;5.644;2023-05-21T09:07:06;100748.03;;;19.37;57.47
36260;BME280;22296;50.824;5.644;2023-05-21T09:09:55;100752.00;;;19.36;57.21
36260;BME280;22296;50.824;5.644;2023-05-21T09:12:26;100747.22;;;19.37;57.37
36260;BME280;22296;50.824;5.644;2023-05-21T09:14:56;100759.22;;;19.37;57.64
36260;BME280;22296;50.824;5.644;2023-05-21T09:17:29;100752.00;;;19.36;57.44
36260;BME280;22296;50.824;5.644;2023-05-21T09:20:05;100758.03;;;19.38;57.11
36260;BME280;22296;50.824;5.644;2023-05-21T09:22:39;100746.53;;;19.40;57.21
36260;BME280;22296;50.824;5.644;2023-05-21T09:25:07;100749.66;;;19.38;57.29
36260;BME280;22296;50.824;5.644;2023-05-21T09:27:35;100750.50;;;19.39;57.62
36260;BME280;22296;50.824;5.644;2023-05-21T09:30:09;100746.84;;;19.38;57.61
36260;BME280;22296;50.824;5.644;2023-05-21T09:32:37;100751.31;;;19.39;57.39
36260;BME280;22296;50.824;5.644;2023-05-21T09:35:13;100744.06;;;19.38;57.71
36260;BME280;22296;50.824;5.644;2023-05-21T09:37:43;100740.59;;;19.41;57.46
36260;BME280;22296;50.824;5.644;2023-05-21T09:40:15;100741.25;;;19.38;57.69
36260;BME280;22296;50.824;5.644;2023-05-21T09:42:47;100745.72;;;19.39;57.55
36260;BME280;22296;50.824;5.644;2023-05-21T09:47:47;100742.94;;;19.39;57.32
36260;BME280;22296;50.824;5.644;2023-05-21T09:50:25;100746.53;;;19.40;57.85
36260;BME280;22296;50.824;5.644;2023-05-21T09:52:54;100744.53;;;19.40;57.54
36260;BME280;22296;50.824;5.644;2023-05-21T09:55:22;100739.31;;;19.39;57.89
36260;BME280;22296;50.824;5.644;2023-05-21T09:57:51;100744.53;;;19.40;57.66
36260;BME280;22296;50.824;5.644;2023-05-21T10:00:19;100733.84;;;19.42;57.63
36260;BME280;22296;50.824;5.644;2023-05-21T10:02:48;100741.03;;;19.43;57.67
36260;BME280;22296;50.824;5.644;2023-05-21T10:05:16;100733.84;;;19.42;57.87
36260;BME280;22296;50.824;5.644;2023-05-21T10:07:50;100735.44;;;19.43;57.41
36260;BME280;22296;50.824;5.644;2023-05-21T10:10:20;100730.66;;;19.44;57.39
36260;BME280;22296;50.824;5.644;2023-05-21T10:12:54;100719.47;;;19.44;57.89
36260;BME280;22296;50.824;5.644;2023-05-21T10:15:23;100726.34;;;19.46;57.71
36260;BME280;22296;50.824;5.644;2023-05-21T10:17:51;100718.44;;;19.48;57.45
36260;BME280;22296;50.824;5.644;2023-05-21T10:20:18;100710.06;;;19.48;57.43
36260;BME280;22296;50.824;5.644;2023-05-21T10:22:46;100710.06;;;19.48;57.79
36260;BME280;22296;50.824;5.644;2023-05-21T10:25:13;100706.53;;;19.51;57.44
36260;BME280;22296;50.824;5.644;2023-05-21T10:27:41;100706.88;;;19.50;57.27
36260;BME280;22296;50.824;5.644;2023-05-21T10:30:08;100713.31;;;19.50;57.20
36260;BME280;22296;50.824;5.644;2023-05-21T10:32:39;100703.75;;;19.51;57.27
36260;BME280;22296;50.824;5.644;2023-05-21T10:35:08;100694.16;;;19.52;57.58
36260;BME280;22296;50.824;5.644;2023-05-21T10:37:35;100695.81;;;19.53;57.25
36260;BME280;22296;50.824;5.644;2023-05-21T10:40:02;100692.66;;;19.55;57.30
36260;BME280;22296;50.824;5.644;2023-05-21T10:45:05;100671.09;;;19.55;57.65
36260;BME280;22296;50.824;5.644;2023-05-21T10:48:04;100671.53;;;19.57;57.34
36260;BME280;22296;50.824;5.644;2023-05-21T11:01:32;100663.25;;;19.61;57.47
36260;BME280;22296;50.824;5.644;2023-05-21T11:04:02;100658.47;;;19.61;57.44
36260;BME280;22296;50.824;5.644;2023-05-21T11:06:29;100658.13;;;19.63;57.23
36260;BME280;22296;50.824;5.644;2023-05-21T11:09:00;100649.38;;;19.64;57.00
36260;BME280;22296;50.824;5.644;2023-05-21T11:14:36;100668.25;;;19.67;57.22
36260;BME280;22296;50.824;5.644;2023-05-21T11:19:44;100652.38;;;19.71;57.21
36260;BME280;22296;50.824;5.644;2023-05-21T11:22:19;100654.69;;;19.69;57.50
36260;BME280;22296;50.824;5.644;2023-05-21T11:24:47;100656.34;;;19.70;57.29
36260;BME280;22296;50.824;5.644;2023-05-21T11:27:36;100659.59;;;19.72;57.07
36260;BME280;22296;50.824;5.644;2023-05-21T11:32:38;100654.44;;;19.74;57.21
36260;BME280;22296;50.824;5.644;2023-05-21T11:35:06;100640.09;;;19.76;57.30
36260;BME280;22296;50.824;5.644;2023-05-21T11:37:33;100634.97;;;19.78;57.20
36260;BME280;22296;50.824;5.644;2023-05-21T11:40:36;100637.41;;;19.79;57.26
36260;BME280;22296;50.824;5.644;2023-05-21T11:43:03;100645.44;;;19.81;57.38
36260;BME280;22296;50.824;5.644;2023-05-21T11:45:31;100631.09;;;19.82;57.11
36260;BME280;22296;50.824;5.644;2023-05-21T11:47:59;100629.56;;;19.85;56.86
36260;BME280;22296;50.824;5.644;2023-05-21T11:50:26;100634.78;;;19.86;56.89
36260;BME280;22296;50.824;5.644;2023-05-21T11:52:56;100632.81;;;19.87;57.09
36260;BME280;22296;50.824;5.644;2023-05-21T11:55:25;100636.44;;;19.87;57.32
36260;BME280;22296;50.824;5.644;2023-05-21T11:57:53;100639.22;;;19.87;57.44
36260;BME280;22296;50.824;5.644;2023-05-21T12:00:21;100642.47;;;19.89;57.12
36260;BME280;22296;50.824;5.644;2023-05-21T12:02:51;100634.56;;;19.92;56.98
36260;BME280;22296;50.824;5.644;2023-05-21T12:05:20;100636.16;;;19.92;56.89
36260;BME280;22296;50.824;5.644;2023-05-21T12:07:47;100642.22;;;19.95;56.94
36260;BME280;22296;50.824;5.644;2023-05-21T12:10:20;100633.03;;;19.94;57.35
36260;BME280;22296;50.824;5.644;2023-05-21T12:12:48;100631.94;;;19.99;56.80
36260;BME280;22296;50.824;5.644;2023-05-21T12:15:22;100629.56;;;20.01;57.05
36260;BME280;22296;50.824;5.644;2023-05-21T12:17:50;100628.41;;;20.02;56.72
36260;BME280;22296;50.824;5.644;2023-05-21T12:20:18;100622.81;;;20.02;56.87
36260;BME280;22296;50.824;5.644;2023-05-21T12:22:47;100621.28;;;20.04;56.88
36260;BME280;22296;50.824;5.644;2023-05-21T12:25:19;100624.53;;;20.06;56.83
36260;BME280;22296;50.824;5.644;2023-05-21T12:27:47;100628.63;;;20.09;56.86
36260;BME280;22296;50.824;5.644;2023-05-21T12:30:16;100630.22;;;20.10;56.70
36260;BME280;22296;50.824;5.644;2023-05-21T12:32:43;100629.50;;;20.13;56.77
36260;BME280;22296;50.824;5.644;2023-05-21T12:35:20;100627.88;;;20.12;56.85
36260;BME280;22296;50.824;5.644;2023-05-21T12:37:47;100626.72;;;20.13;56.96
36260;BME280;22296;50.824;5.644;2023-05-21T12:40:16;100631.16;;;20.14;57.00
36260;BME280;22296;50.824;5.644;2023-05-21T12:42:43;100635.22;;;20.16;56.84
36260;BME280;22296;50.824;5.644;2023-05-21T12:45:11;100634.38;;;20.16;56.91
36260;BME280;22296;50.824;5.644;2023-05-21T12:47:38;100641.63;;;20.17;56.74
36260;BME280;22296;50.824;5.644;2023-05-21T12:50:08;100641.63;;;20.17;56.51
36260;BME280;22296;50.824;5.644;2023-05-21T12:52:39;100637.63;;;20.18;56.91
36260;BME280;22296;50.824;5.644;2023-05-21T12:55:06;100641.69;;;20.20;56.72
36260;BME280;22296;50.824;5.644;2023-05-21T12:57:36;100634.59;;;20.23;56.88
36260;BME280;22296;50.824;5.644;2023-05-21T13:00:07;100625.81;;;20.24;56.61
36260;BME280;22296;50.824;5.644;2023-05-21T13:05:09;100631.53;;;20.28;56.65
36260;BME280;22296;50.824;5.644;2023-05-21T13:07:37;100619.50;;;20.27;56.82
36260;BME280;22296;50.824;5.644;2023-05-21T13:10:05;100625.94;;;20.28;56.68
36260;BME280;22296;50.824;5.644;2023-05-21T13:12:34;100617.16;;;20.29;56.82
36260;BME280;22296;50.824;5.644;2023-05-21T13:15:03;100612.38;;;20.30;56.63
36260;BME280;22296;50.824;5.644;2023-05-21T13:17:30;100614.84;;;20.31;56.71
36260;BME280;22296;50.824;5.644;2023-05-21T13:20:13;100602.81;;;20.31;56.41
36260;BME280;22296;50.824;5.644;2023-05-21T13:22:48;100600.44;;;20.33;56.61
36260;BME280;22296;50.824;5.644;2023-05-21T13:25:23;100590.16;;;20.37;56.72
36260;BME280;22296;50.824;5.644;2023-05-21T13:27:51;100585.28;;;20.34;56.81